sensor_id;sensor_type;location;lat;lon;timestamp;pressure;altitude;pressure_sealevel;temperature;humidity
70434;BME280;57876;47.792;12.960;2023-02-10T20:11:04;98721.50;;;15.87;39.34
70434;BME280;57876;47.792;12.960;2023-02-10T20:13:28;98727.22;;;15.90;39.36
70434;BME280;57876;47.792;12.960;2023-02-10T20:15:53;98733.25;;;15.97;39.15
70434;BME280;57876;47.792;12.960;2023-02-10T20:18:18;98731.31;;;15.98;39.25
70434;BME280;57876;47.792;12.960;2023-02-10T20:20:53;98720.41;;;15.98;39.05
70434;BME280;57876;47.792;12.960;2023-02-10T20:23:18;98725.63;;;16.04;39.51
70434;BME280;57876;47.792;12.960;2023-02-10T20:25:43;98726.16;;;16.06;39.35
70434;BME280;57876;47.792;12.960;2023-02-10T20:28:08;98715.50;;;16.05;39.08
70434;BME280;57876;47.792;12.960;2023-02-10T20:30:35;98722.34;;;16.07;39.36
70434;BME280;57876;47.792;12.960;2023-02-10T20:33:00;98721.53;;;16.12;39.30
70434;BME280;57876;47.792;12.960;2023-02-10T20:35:24;98719.06;;;16.11;39.31
70434;BME280;57876;47.792;12.960;2023-02-10T20:37:49;98721.78;;;16.16;38.91
70434;BME280;57876;47.792;12.960;2023-02-10T20:40:13;98728.06;;;16.16;38.95
70434;BME280;57876;47.792;12.960;2023-02-10T20:42:38;98730.78;;;16.16;39.34
70434;BME280;57876;47.792;12.960;2023-02-10T20:45:03;98739.53;;;16.18;39.03
70434;BME280;57876;47.792;12.960;2023-02-10T20:47:30;98729.44;;;16.19;39.14
70434;BME280;57876;47.792;12.960;2023-02-10T20:49:57;98731.34;;;16.18;39.08
70434;BME280;57876;47.792;12.960;2023-02-10T20:52:22;98729.44;;;16.19;39.24
70434;BME280;57876;47.792;12.960;2023-02-10T20:54:46;98722.59;;;16.16;39.26
70434;BME280;57876;47.792;12.960;2023-02-10T20:57:14;98721.53;;;16.17;39.27
70434;BME280;57876;47.792;12.960;2023-02-10T20:59:39;98715.25;;;16.12;39.20
70434;BME280;57876;47.792;12.960;2023-02-10T21:02:03;98725.06;;;16.18;39.02
70434;BME280;57876;47.792;12.960;2023-02-10T21:04:29;98722.59;;;16.16;39.05
70434;BME280;57876;47.792;12.960;2023-02-10T21:06:58;98731.06;;;16.15;39.11
70434;BME280;57876;47.792;12.960;2023-02-10T21:09:25;98720.72;;;16.12;39.30
70434;BME280;57876;47.792;12.960;2023-02-10T21:11:55;98734.88;;;16.19;38.89
70434;BME280;57876;47.792;12.960;2023-02-10T21:14:19;98717.13;;;16.16;39.35
70434;BME280;57876;47.792;12.960;2023-02-10T21:16:44;98718.50;;;16.14;39.02
70434;BME280;57876;47.792;12.960;2023-02-10T21:19:09;98729.97;;;16.21;38.97
70434;BME280;57876;47.792;12.960;2023-02-10T21:21:37;98735.44;;;16.21;39.16
70434;BME280;57876;47.792;12.960;2023-02-10T21:24:03;98727.81;;;16.23;38.89
70434;BME280;57876;47.792;12.960;2023-02-10T21:26:31;98734.88;;;16.24;38.99
70434;BME280;57876;47.792;12.960;2023-02-10T21:28:55;98723.97;;;16.24;38.81
70434;BME280;57876;47.792;12.960;2023-02-10T21:31:21;98731.09;;;16.25;39.13
70434;BME280;57876;47.792;12.960;2023-02-10T21:33:47;98731.09;;;16.25;38.81
70434;BME280;57876;47.792;12.960;2023-02-10T21:36:18;98725.06;;;16.28;39.08
70434;BME280;57876;47.792;12.960;2023-02-10T21:38:43;98723.41;;;16.27;38.92
70434;BME280;57876;47.792;12.960;2023-02-10T21:41:08;98730.53;;;16.28;39.17
70434;BME280;57876;47.792;12.960;2023-02-10T21:43:54;98723.41;;;16.27;39.26
70434;BME280;57876;47.792;12.960;2023-02-10T21:46:18;98727.81;;;16.28;38.73
70434;BME280;57876;47.792;12.960;2023-02-10T21:48:43;98717.44;;;16.25;38.94
70434;BME280;57876;47.792;12.960;2023-02-10T21:51:07;98719.31;;;16.24;38.97
70434;BME280;57876;47.792;12.960;2023-02-10T21:53:32;98740.34;;;16.34;38.64
70434;BME280;57876;47.792;12.960;2023-02-10T21:56:03;98723.41;;;16.27;38.87
70434;BME280;57876;47.792;12.960;2023-02-10T21:58:27;98732.16;;;16.29;39.12
70434;BME280;57876;47.792;12.960;2023-02-10T22:00:55;98728.31;;;16.35;38.83
70434;BME280;57876;47.792;12.960;2023-02-10T22:03:20;98708.94;;;16.26;39.14
70434;BME280;57876;47.792;12.960;2023-02-10T22:05:55;98739.78;;;16.37;39.07
70434;BME280;57876;47.792;12.960;2023-02-10T22:08:20;98732.72;;;16.36;39.19
70434;BME280;57876;47.792;12.960;2023-02-10T22:10:45;98725.31;;;16.37;38.87
70434;BME280;57876;47.792;12.960;2023-02-10T22:13:10;98718.50;;;16.34;38.81
70434;BME280;57876;47.792;12.960;2023-02-10T22:15:38;98707.59;;;16.24;39.02
70434;BME280;57876;47.792;12.960;2023-02-10T22:18:03;98723.16;;;16.34;38.85
70434;BME280;57876;47.792;12.960;2023-02-10T22:20:28;98710.88;;;16.26;38.81
70434;BME280;57876;47.792;12.960;2023-02-10T22:22:53;98712.78;;;16.25;38.72
70434;BME280;57876;47.792;12.960;2023-02-10T22:25:17;98707.59;;;16.24;38.72
70434;BME280;57876;47.792;12.960;2023-02-10T22:27:42;98708.41;;;16.24;38.96
70434;BME280;57876;47.792;12.960;2023-02-10T22:30:07;98701.31;;;16.23;39.11
70434;BME280;57876;47.792;12.960;2023-02-10T22:32:32;98707.03;;;16.22;39.12
70434;BME280;57876;47.792;12.960;2023-02-10T22:34:56;98707.03;;;16.22;38.89
70434;BME280;57876;47.792;12.960;2023-02-10T22:37:20;98704.31;;;16.22;39.07
70434;BME280;57876;47.792;12.960;2023-02-10T22:39:45;98705.41;;;16.21;39.09
70434;BME280;57876;47.792;12.960;2023-02-10T22:42:09;98689.28;;;16.14;38.89
70434;BME280;57876;47.792;12.960;2023-02-10T22:44:34;98690.38;;;16.13;39.20
70434;BME280;57876;47.792;12.960;2023-02-10T22:46:58;98692.03;;;16.14;38.78
70434;BME280;57876;47.792;12.960;2023-02-10T22:49:23;98689.59;;;16.13;38.87
70434;BME280;57876;47.792;12.960;2023-02-10T22:51:48;98698.88;;;16.12;38.82
70434;BME280;57876;47.792;12.960;2023-02-10T22:54:12;98692.56;;;16.06;38.99
70434;BME280;57876;47.792;12.960;2023-02-10T22:56:38;98690.94;;;16.05;38.68
70434;BME280;57876;47.792;12.960;2023-02-10T22:59:04;98698.31;;;16.04;38.74
70434;BME280;57876;47.792;12.960;2023-02-10T23:01:32;98695.03;;;16.02;38.73
70434;BME280;57876;47.792;12.960;2023-02-10T23:03:57;98693.41;;;16.01;38.74
70434;BME280;57876;47.792;12.960;2023-02-10T23:06:22;98689.56;;;15.97;39.03
70434;BME280;57876;47.792;12.960;2023-02-10T23:08:47;98687.94;;;15.96;39.14
70434;BME280;57876;47.792;12.960;2023-02-10T23:11:11;98685.22;;;15.91;38.86
70434;BME280;57876;47.792;12.960;2023-02-10T23:13:36;98680.56;;;15.92;39.03
70434;BME280;57876;47.792;12.960;2023-02-10T23:16:01;98678.41;;;15.89;38.98
70434;BME280;57876;47.792;12.960;2023-02-10T23:18:25;98677.03;;;15.86;38.51
70434;BME280;57876;47.792;12.960;2023-02-10T23:20:50;98679.22;;;15.84;38.95
70434;BME280;57876;47.792;12.960;2023-02-10T23:23:16;98683.84;;;15.83;39.00
70434;BME280;57876;47.792;12.960;2023-02-10T23:25:48;98685.75;;;15.83;38.69
70434;BME280;57876;47.792;12.960;2023-02-10T23:28:14;98681.66;;;15.80;38.84
70434;BME280;57876;47.792;12.960;2023-02-10T23:30:39;98674.28;;;15.76;38.82
70434;BME280;57876;47.792;12.960;2023-02-10T23:33:03;98674.28;;;15.76;38.95
70434;BME280;57876;47.792;12.960;2023-02-10T23:35:31;98683.59;;;15.75;39.13
70434;BME280;57876;47.792;12.960;2023-02-10T23:37:56;98689.03;;;15.75;38.75
70434;BME280;57876;47.792;12.960;2023-02-10T23:40:20;98694.75;;;15.73;38.87
70434;BME280;57876;47.792;12.960;2023-02-10T23:42:45;98693.38;;;15.71;38.82
70434;BME280;57876;47.792;12.960;2023-02-10T23:45:09;98695.56;;;15.69;38.83
70434;BME280;57876;47.792;12.960;2023-02-10T23:47:34;98688.44;;;15.68;38.80
70434;BME280;57876;47.792;12.960;2023-02-10T23:49:58;98690.91;;;15.64;38.78
70434;BME280;57876;47.792;12.960;2023-02-10T23:52:23;98689.00;;;15.64;38.76
70434;BME280;57876;47.792;12.960;2023-02-10T23:54:47;98689.81;;;15.65;38.69
70434;BME280;57876;47.792;12.960;2023-02-10T23:57:11;98687.06;;;15.60;38.95
70434;BME280;57876;47.792;12.960;2023-02-10T23:59:37;98686.25;;;15.59;38.99
